Terminal Aerodrome Forecast
Issued by NWS

Home | Current Version | Previous Version | Graphics & Text | Print | Product List | Glossary On
Versions: 1 2 3 4 5 6 7 8 9 10 11 12 13 14 15 16 17 18 19 20
000
FTUS43 KGRB 191728
TAFAUW
TAF
KAUW 191728Z 1918/2018 26007KT P6SM FEW250
     FM200700 21003KT 5SM BR FEW150
     FM201000 VRB03KT 4SM BR SCT120
     FM201300 21006KT P6SM SCT200=

USA.gov is the U.S. government's official web portal to all federal, state and local government web resources and services.